Terminal Aerodrome Forecast
Issued by NWS Jackson, KY

Home | Current Version | Previous Version | Text Only | Print | Product List | Glossary On
Versions: 1 2 3 4 5 6 7 8 9 10 11 12 13 14 15 16 17
000
FTUS43 KJKL 220900 AAA
TAFLOZ
TAF AMD
KLOZ 220958Z 2210/2306 23003KT P6SM VCSH BKN090
     FM221100 24005KT 4SM -SHRA BR VCTS BKN030CB OVC050
     FM221400 27008KT 4SM -SHRA VCTS BKN015CB OVC030
     FM221700 32010G15KT P6SM VCSH OVC035
     FM222200 34007KT P6SM SCT040=

USA.gov is the U.S. government's official web portal to all federal, state and local government web resources and services.